Calumet — WDE3568 — position and weather

sailwx.info

Track history (hours):
 
Tides and Currents Weather Stations Pressure Air Temp Water Temp Dewpoint Dewpoint Depression Visibility Wind Speed Wind Dir Waves Ship Positions

Calumet

Owner: Grand River Navigation Company, Traverse City, MI. More information available from US FCC via Universal Licensing System and Coast Guard Vessel Documentation Center.

Last reported at 2015-Jan-19 06:24 UTC. Time now 2015-Mar-04 12:47 UTC.
Position N 45°48' W 084°08'.
Warning: this ship's position is 44 days out of date.

Length 192 m; draft 6.3 m.

Type: Cargo ship. MMSI: 367132630.

Date/timePositionNaut miles runAvg speedWind from/ knotsBaromVisibWave heightAir tempDewpointWater temp
2015-Jan-19 06:24N 45°48' W 084°08'1012.2
2015-Jan-19 05:33N 45°50' W 084°23'1111.2
2015-Jan-19 04:33N 45°50' W 084°39'1010.4
2015-Jan-19 03:33N 45°50' W 084°54'8 7.7
2015-Jan-19 02:33N 45°51' W 085°04'4 4.2
2015-Jan-19 01:33N 45°52' W 085°10'6 6.4
2015-Jan-19 00:33N 45°52' W 085°20'9 9.2
2015-Jan-18 23:33N 45°53' W 085°33'9 9.4
2015-Jan-18 22:33N 45°50' W 085°45'1212.0
2015-Jan-18 21:33N 45°45' W 086°01'  
2015-Jan-16 10:32N 45°46' W 086°16'1111.7
2015-Jan-16 09:33N 45°50' W 086°00'1212.5
2015-Jan-16 08:33N 45°52' W 085°43'9 9.2
2015-Jan-16 07:33N 45°53' W 085°30'5 4.7
2015-Jan-16 06:33N 45°52' W 085°23'7 6.6
2015-Jan-16 05:33N 45°51' W 085°14'3 2.6
2015-Jan-16 04:33N 45°51' W 085°10'0 0.3
2015-Jan-16 03:33N 45°51' W 085°09'0 0.4
2015-Jan-16 02:33N 45°51' W 085°10'4 4.0
2015-Jan-16 01:33N 45°51' W 085°04'0 0.2
2015-Jan-16 00:33N 45°51' W 085°04'0 0.2
2015-Jan-15 23:33N 45°51' W 085°04'0 0.1
2015-Jan-15 22:33N 45°51' W 085°04'0 0.1
2015-Jan-15 21:33N 45°51' W 085°04'0 0.1
2015-Jan-15 20:33N 45°51' W 085°04'0 0.0
2015-Jan-15 19:33N 45°51' W 085°04'0 0.0
2015-Jan-15 18:33N 45°51' W 085°04'1 1.1
2015-Jan-15 17:33N 45°51' W 085°03'1 0.9
2015-Jan-15 16:33N 45°51' W 085°01'3 2.6
2015-Jan-15 15:34N 45°50' W 084°58'3 2.7
2015-Jan-15 14:33N 45°50' W 084°54'2 1.8
2015-Jan-15 13:33N 45°50' W 084°51'0 0.5
2015-Jan-15 12:33N 45°49' W 084°51'0 0.0
2015-Jan-15 11:33N 45°49' W 084°51'0 0.0
2015-Jan-15 10:33N 45°49' W 084°51'0 0.0
2015-Jan-15 09:33N 45°49' W 084°51'0 0.0
2015-Jan-15 08:33N 45°49' W 084°51'0 0.0
2015-Jan-15 07:33N 45°49' W 084°51'0 0.0
2015-Jan-15 06:33N 45°49' W 084°51'0 0.0
2015-Jan-15 05:33N 45°49' W 084°51'0 0.0
2015-Jan-15 04:33N 45°49' W 084°51'0 0.0
2015-Jan-15 03:33N 45°49' W 084°51'5 4.5
2015-Jan-15 02:33N 45°49' W 084°44'9 9.1
2015-Jan-15 01:33N 45°51' W 084°32'1212.3
2015-Jan-15 00:33N 45°53' W 084°14'15 4.5
2015-Jan-14 21:15N 46°04' W 084°00'0 0.0
2015-Jan-14 18:26N 46°04' W 084°00'1 0.1
2015-Jan-14 04:15N 46°04' W 083°59'8 8.0
2015-Jan-14 03:18N 45°57' W 083°54'910.8
2015-Jan-14 02:26N 45°53' W 084°06'1112.8
2015-Jan-14 01:33N 45°52' W 084°22'1212.4
2015-Jan-14 00:33N 45°50' W 084°39'1010.4
2015-Jan-13 23:33N 45°50' W 084°54'7 6.7
2015-Jan-13 22:33N 45°51' W 085°04'5 5.4
2015-Jan-13 21:33N 45°52' W 085°11'0 0.0
2015-Jan-13 20:33N 45°52' W 085°11'0 0.1
2015-Jan-13 19:33N 45°52' W 085°12'0 0.2
2015-Jan-13 18:33N 45°52' W 085°12'0 0.0
2015-Jan-13 17:33N 45°52' W 085°12'0 0.0
2015-Jan-13 16:33N 45°52' W 085°12'0 0.0
2015-Jan-13 15:33N 45°52' W 085°12'0 0.0
2015-Jan-13 14:33N 45°52' W 085°12'0 0.0
2015-Jan-13 13:34N 45°52' W 085°12'0 0.0
2015-Jan-13 12:33N 45°52' W 085°12'0 0.0
2015-Jan-13 11:33N 45°52' W 085°12'0 0.0
2015-Jan-13 10:33N 45°52' W 085°12'0 0.0
2015-Jan-13 09:33N 45°52' W 085°12'0 0.3
2015-Jan-13 08:33N 45°52' W 085°12'6 6.4
2015-Jan-13 07:33N 45°52' W 085°22'6 6.2
2015-Jan-13 06:33N 45°53' W 085°30'6 6.2
2015-Jan-13 05:33N 45°52' W 085°39'7 6.9
2015-Jan-13 04:33N 45°49' W 085°48'7 7.2
2015-Jan-13 03:33N 45°46' W 085°58'9 8.5
2015-Jan-13 02:33N 45°39' W 086°04'  
Track history (hours):
 
Tides and Currents Weather Stations Pressure Air Temp Water Temp Dewpoint Dewpoint Depression Visibility Wind Speed Wind Dir Waves Ship Positions

Calumet

Owner: Grand River Navigation Company, Traverse City, MI. More information available from US FCC via Universal Licensing System and Coast Guard Vessel Documentation Center.

Last reported at 2015-Jan-19 06:24 UTC. Time now 2015-Mar-04 12:47 UTC.
Position N 45°48' W 084°08'.
Warning: this ship's position is 44 days out of date.

Length 192 m; draft 6.3 m.

Type: Cargo ship. MMSI: 367132630.

Date/timePositionNaut miles runAvg speedWind from/ knotsBaromVisibWave heightAir tempDewpointWater temp
2015-Jan-19 06:24N 45°48' W 084°08'1012.2
2015-Jan-19 05:33N 45°50' W 084°23'1111.2
2015-Jan-19 04:33N 45°50' W 084°39'1010.4
2015-Jan-19 03:33N 45°50' W 084°54'8 7.7
2015-Jan-19 02:33N 45°51' W 085°04'4 4.2
2015-Jan-19 01:33N 45°52' W 085°10'6 6.4
2015-Jan-19 00:33N 45°52' W 085°20'9 9.2
2015-Jan-18 23:33N 45°53' W 085°33'9 9.4
2015-Jan-18 22:33N 45°50' W 085°45'1212.0
2015-Jan-18 21:33N 45°45' W 086°01'  
2015-Jan-16 10:32N 45°46' W 086°16'1111.7
2015-Jan-16 09:33N 45°50' W 086°00'1212.5
2015-Jan-16 08:33N 45°52' W 085°43'9 9.2
2015-Jan-16 07:33N 45°53' W 085°30'5 4.7
2015-Jan-16 06:33N 45°52' W 085°23'7 6.6
2015-Jan-16 05:33N 45°51' W 085°14'3 2.6
2015-Jan-16 04:33N 45°51' W 085°10'0 0.3
2015-Jan-16 03:33N 45°51' W 085°09'0 0.4
2015-Jan-16 02:33N 45°51' W 085°10'4 4.0
2015-Jan-16 01:33N 45°51' W 085°04'0 0.2
2015-Jan-16 00:33N 45°51' W 085°04'0 0.2
2015-Jan-15 23:33N 45°51' W 085°04'0 0.1
2015-Jan-15 22:33N 45°51' W 085°04'0 0.1
2015-Jan-15 21:33N 45°51' W 085°04'0 0.1
2015-Jan-15 20:33N 45°51' W 085°04'0 0.0
2015-Jan-15 19:33N 45°51' W 085°04'0 0.0
2015-Jan-15 18:33N 45°51' W 085°04'1 1.1
2015-Jan-15 17:33N 45°51' W 085°03'1 0.9
2015-Jan-15 16:33N 45°51' W 085°01'3 2.6
2015-Jan-15 15:34N 45°50' W 084°58'3 2.7
2015-Jan-15 14:33N 45°50' W 084°54'2 1.8
2015-Jan-15 13:33N 45°50' W 084°51'0 0.5
2015-Jan-15 12:33N 45°49' W 084°51'0 0.0
2015-Jan-15 11:33N 45°49' W 084°51'0 0.0
2015-Jan-15 10:33N 45°49' W 084°51'0 0.0
2015-Jan-15 09:33N 45°49' W 084°51'0 0.0
2015-Jan-15 08:33N 45°49' W 084°51'0 0.0
2015-Jan-15 07:33N 45°49' W 084°51'0 0.0
2015-Jan-15 06:33N 45°49' W 084°51'0 0.0
2015-Jan-15 05:33N 45°49' W 084°51'0 0.0
2015-Jan-15 04:33N 45°49' W 084°51'0 0.0
2015-Jan-15 03:33N 45°49' W 084°51'5 4.5
2015-Jan-15 02:33N 45°49' W 084°44'9 9.1
2015-Jan-15 01:33N 45°51' W 084°32'1212.3
2015-Jan-15 00:33N 45°53' W 084°14'15 4.5
2015-Jan-14 21:15N 46°04' W 084°00'0 0.0
2015-Jan-14 18:26N 46°04' W 084°00'1 0.1
2015-Jan-14 04:15N 46°04' W 083°59'8 8.0
2015-Jan-14 03:18N 45°57' W 083°54'910.8
2015-Jan-14 02:26N 45°53' W 084°06'1112.8
2015-Jan-14 01:33N 45°52' W 084°22'1212.4
2015-Jan-14 00:33N 45°50' W 084°39'1010.4
2015-Jan-13 23:33N 45°50' W 084°54'7 6.7
2015-Jan-13 22:33N 45°51' W 085°04'5 5.4
2015-Jan-13 21:33N 45°52' W 085°11'0 0.0
2015-Jan-13 20:33N 45°52' W 085°11'0 0.1
2015-Jan-13 19:33N 45°52' W 085°12'0 0.2
2015-Jan-13 18:33N 45°52' W 085°12'0 0.0
2015-Jan-13 17:33N 45°52' W 085°12'0 0.0
2015-Jan-13 16:33N 45°52' W 085°12'0 0.0
2015-Jan-13 15:33N 45°52' W 085°12'0 0.0
2015-Jan-13 14:33N 45°52' W 085°12'0 0.0
2015-Jan-13 13:34N 45°52' W 085°12'0 0.0
2015-Jan-13 12:33N 45°52' W 085°12'0 0.0
2015-Jan-13 11:33N 45°52' W 085°12'0 0.0
2015-Jan-13 10:33N 45°52' W 085°12'0 0.0
2015-Jan-13 09:33N 45°52' W 085°12'0 0.3
2015-Jan-13 08:33N 45°52' W 085°12'6 6.4
2015-Jan-13 07:33N 45°52' W 085°22'6 6.2
2015-Jan-13 06:33N 45°53' W 085°30'6 6.2
2015-Jan-13 05:33N 45°52' W 085°39'7 6.9
2015-Jan-13 04:33N 45°49' W 085°48'7 7.2
2015-Jan-13 03:33N 45°46' W 085°58'9 8.5
2015-Jan-13 02:33N 45°39' W 086°04'  

Dump ship's entire track history